sensor_id;sensor_type;location;lat;lon;timestamp;temperature;humidity
53498;DHT22;39382;47.168;16.008;2023-02-26T00:00:10;1.40;99.90
53498;DHT22;39382;47.168;16.008;2023-02-26T00:02:40;1.40;99.90
53498;DHT22;39382;47.168;16.008;2023-02-26T00:05:06;1.40;99.90
53498;DHT22;39382;47.168;16.008;2023-02-26T00:07:33;1.50;99.90
53498;DHT22;39382;47.168;16.008;2023-02-26T00:09:58;1.50;99.90
53498;DHT22;39382;47.168;16.008;2023-02-26T00:12:26;1.50;99.90
53498;DHT22;39382;47.168;16.008;2023-02-26T00:14:52;1.60;99.90
53498;DHT22;39382;47.168;16.008;2023-02-26T00:20:03;1.60;99.90
53498;DHT22;39382;47.168;16.008;2023-02-26T00:22:29;1.60;99.90
53498;DHT22;39382;47.168;16.008;2023-02-26T00:24:55;1.60;99.90
53498;DHT22;39382;47.168;16.008;2023-02-26T00:27:21;1.70;99.90
53498;DHT22;39382;47.168;16.008;2023-02-26T00:29:47;1.60;99.90
53498;DHT22;39382;47.168;16.008;2023-02-26T00:32:13;1.70;99.90
53498;DHT22;39382;47.168;16.008;2023-02-26T00:34:38;1.70;99.90
53498;DHT22;39382;47.168;16.008;2023-02-26T00:42:26;1.70;99.90
53498;DHT22;39382;47.168;16.008;2023-02-26T00:44:52;1.60;99.90
53498;DHT22;39382;47.168;16.008;2023-02-26T00:50:20;1.70;99.90
53498;DHT22;39382;47.168;16.008;2023-02-26T00:53:03;1.60;99.90
53498;DHT22;39382;47.168;16.008;2023-02-26T00:55:33;1.60;99.90
53498;DHT22;39382;47.168;16.008;2023-02-26T00:57:58;1.60;99.90
53498;DHT22;39382;47.168;16.008;2023-02-26T01:00:24;1.60;99.90
53498;DHT22;39382;47.168;16.008;2023-02-26T01:02:50;1.50;99.90
53498;DHT22;39382;47.168;16.008;2023-02-26T01:05:16;1.50;99.90
53498;DHT22;39382;47.168;16.008;2023-02-26T01:10:23;1.50;99.90
53498;DHT22;39382;47.168;16.008;2023-02-26T01:12:49;1.50;99.90
53498;DHT22;39382;47.168;16.008;2023-02-26T01:15:15;1.60;99.90
53498;DHT22;39382;47.168;16.008;2023-02-26T01:20:15;1.60;99.90
53498;DHT22;39382;47.168;16.008;2023-02-26T01:22:53;1.50;99.90
53498;DHT22;39382;47.168;16.008;2023-02-26T01:25:29;1.50;99.90
53498;DHT22;39382;47.168;16.008;2023-02-26T01:27:59;1.40;99.90
53498;DHT22;39382;47.168;16.008;2023-02-26T01:30:25;1.40;99.90
53498;DHT22;39382;47.168;16.008;2023-02-26T01:36:06;1.40;99.90
53498;DHT22;39382;47.168;16.008;2023-02-26T01:43:56;1.50;99.90
53498;DHT22;39382;47.168;16.008;2023-02-26T01:46:44;1.60;99.90
53498;DHT22;39382;47.168;16.008;2023-02-26T01:49:13;1.60;99.90
53498;DHT22;39382;47.168;16.008;2023-02-26T01:54:44;1.60;99.90
53498;DHT22;39382;47.168;16.008;2023-02-26T01:57:14;1.70;99.90
53498;DHT22;39382;47.168;16.008;2023-02-26T01:59:47;1.70;99.90
53498;DHT22;39382;47.168;16.008;2023-02-26T02:02:18;1.70;99.90
53498;DHT22;39382;47.168;16.008;2023-02-26T02:04:45;1.70;99.90
53498;DHT22;39382;47.168;16.008;2023-02-26T02:07:12;1.60;99.90
53498;DHT22;39382;47.168;16.008;2023-02-26T02:09:38;1.70;99.90
53498;DHT22;39382;47.168;16.008;2023-02-26T02:25:58;1.50;99.90
53498;DHT22;39382;47.168;16.008;2023-02-26T02:31:28;1.40;99.90
53498;DHT22;39382;47.168;16.008;2023-02-26T02:34:01;1.40;99.90
53498;DHT22;39382;47.168;16.008;2023-02-26T02:36:48;1.50;99.90
53498;DHT22;39382;47.168;16.008;2023-02-26T02:39:24;1.50;99.90
53498;DHT22;39382;47.168;16.008;2023-02-26T02:44:47;1.50;99.90
53498;DHT22;39382;47.168;16.008;2023-02-26T02:47:14;1.60;99.90
53498;DHT22;39382;47.168;16.008;2023-02-26T02:52:45;1.40;99.90
53498;DHT22;39382;47.168;16.008;2023-02-26T02:55:27;1.40;99.90
53498;DHT22;39382;47.168;16.008;2023-02-26T02:58:03;1.40;99.90
53498;DHT22;39382;47.168;16.008;2023-02-26T03:00:31;1.50;99.90
53498;DHT22;39382;47.168;16.008;2023-02-26T03:03:08;1.50;99.90
53498;DHT22;39382;47.168;16.008;2023-02-26T03:05:35;1.50;99.90
53498;DHT22;39382;47.168;16.008;2023-02-26T03:08:05;1.50;99.90
53498;DHT22;39382;47.168;16.008;2023-02-26T03:10:32;1.40;99.90
53498;DHT22;39382;47.168;16.008;2023-02-26T03:12:59;1.40;99.90
53498;DHT22;39382;47.168;16.008;2023-02-26T03:15:49;1.50;99.90
53498;DHT22;39382;47.168;16.008;2023-02-26T03:18:18;1.40;99.90
53498;DHT22;39382;47.168;16.008;2023-02-26T03:21:09;1.40;99.90
53498;DHT22;39382;47.168;16.008;2023-02-26T03:24:28;1.40;99.90
53498;DHT22;39382;47.168;16.008;2023-02-26T03:27:04;1.40;99.90
53498;DHT22;39382;47.168;16.008;2023-02-26T03:29:49;1.40;99.90
53498;DHT22;39382;47.168;16.008;2023-02-26T03:32:28;1.40;99.90
53498;DHT22;39382;47.168;16.008;2023-02-26T03:35:04;1.40;99.90
53498;DHT22;39382;47.168;16.008;2023-02-26T03:40:11;1.50;99.90
53498;DHT22;39382;47.168;16.008;2023-02-26T03:42:48;1.50;99.90
53498;DHT22;39382;47.168;16.008;2023-02-26T03:45:22;1.50;99.90
53498;DHT22;39382;47.168;16.008;2023-02-26T03:47:50;1.40;99.90
53498;DHT22;39382;47.168;16.008;2023-02-26T03:52:50;1.40;99.90
53498;DHT22;39382;47.168;16.008;2023-02-26T03:55:20;1.40;99.90
53498;DHT22;39382;47.168;16.008;2023-02-26T03:57:47;1.40;99.90
53498;DHT22;39382;47.168;16.008;2023-02-26T04:00:14;1.40;99.90
53498;DHT22;39382;47.168;16.008;2023-02-26T04:05:22;1.40;99.90
53498;DHT22;39382;47.168;16.008;2023-02-26T04:07:49;1.30;99.90
53498;DHT22;39382;47.168;16.008;2023-02-26T04:10:18;1.40;99.90
53498;DHT22;39382;47.168;16.008;2023-02-26T04:12:44;1.50;99.90
53498;DHT22;39382;47.168;16.008;2023-02-26T04:15:10;1.50;99.90
53498;DHT22;39382;47.168;16.008;2023-02-26T04:17:36;1.70;99.90
53498;DHT22;39382;47.168;16.008;2023-02-26T04:20:02;1.20;99.90
53498;DHT22;39382;47.168;16.008;2023-02-26T04:22:32;1.20;99.90
53498;DHT22;39382;47.168;16.008;2023-02-26T04:24:58;1.20;99.90
53498;DHT22;39382;47.168;16.008;2023-02-26T04:27:24;1.20;99.90
53498;DHT22;39382;47.168;16.008;2023-02-26T04:29:49;1.30;99.90
53498;DHT22;39382;47.168;16.008;2023-02-26T04:32:15;1.10;99.90
53498;DHT22;39382;47.168;16.008;2023-02-26T04:34:41;1.20;99.90
53498;DHT22;39382;47.168;16.008;2023-02-26T04:37:06;1.40;99.90
53498;DHT22;39382;47.168;16.008;2023-02-26T04:39:32;1.30;99.90
53498;DHT22;39382;47.168;16.008;2023-02-26T04:41:58;1.30;99.90
53498;DHT22;39382;47.168;16.008;2023-02-26T04:44:23;1.30;99.90
53498;DHT22;39382;47.168;16.008;2023-02-26T04:46:49;1.30;99.90
53498;DHT22;39382;47.168;16.008;2023-02-26T04:49:14;1.20;99.90
53498;DHT22;39382;47.168;16.008;2023-02-26T04:51:40;1.20;99.90
53498;DHT22;39382;47.168;16.008;2023-02-26T04:54:06;1.50;99.90
53498;DHT22;39382;47.168;16.008;2023-02-26T04:56:31;1.40;99.90
53498;DHT22;39382;47.168;16.008;2023-02-26T04:58:57;1.20;99.90
53498;DHT22;39382;47.168;16.008;2023-02-26T05:01:23;1.30;99.90
53498;DHT22;39382;47.168;16.008;2023-02-26T05:03:49;1.20;99.90
53498;DHT22;39382;47.168;16.008;2023-02-26T05:06:15;1.20;99.90
53498;DHT22;39382;47.168;16.008;2023-02-26T05:08:40;1.60;99.90
53498;DHT22;39382;47.168;16.008;2023-02-26T05:11:08;1.30;99.90
53498;DHT22;39382;47.168;16.008;2023-02-26T05:13:34;1.30;99.90
53498;DHT22;39382;47.168;16.008;2023-02-26T05:15:59;1.20;99.90
53498;DHT22;39382;47.168;16.008;2023-02-26T05:18:25;1.40;99.90
53498;DHT22;39382;47.168;16.008;2023-02-26T05:20:54;1.10;99.90
53498;DHT22;39382;47.168;16.008;2023-02-26T05:23:21;1.40;99.90
53498;DHT22;39382;47.168;16.008;2023-02-26T05:25:47;1.30;99.90
53498;DHT22;39382;47.168;16.008;2023-02-26T05:28:12;1.30;99.90
53498;DHT22;39382;47.168;16.008;2023-02-26T05:30:39;1.20;99.90
53498;DHT22;39382;47.168;16.008;2023-02-26T05:33:04;1.20;99.90
53498;DHT22;39382;47.168;16.008;2023-02-26T05:35:30;1.60;99.90
53498;DHT22;39382;47.168;16.008;2023-02-26T05:37:56;1.20;99.90
53498;DHT22;39382;47.168;16.008;2023-02-26T05:40:21;1.10;99.90
53498;DHT22;39382;47.168;16.008;2023-02-26T05:42:47;1.10;99.90
53498;DHT22;39382;47.168;16.008;2023-02-26T05:45:13;1.10;99.90
53498;DHT22;39382;47.168;16.008;2023-02-26T05:47:38;1.20;99.90
53498;DHT22;39382;47.168;16.008;2023-02-26T05:50:05;1.10;99.90
53498;DHT22;39382;47.168;16.008;2023-02-26T05:52:31;1.10;99.90
53498;DHT22;39382;47.168;16.008;2023-02-26T05:54:57;1.00;99.90
53498;DHT22;39382;47.168;16.008;2023-02-26T05:57:23;1.10;99.90
53498;DHT22;39382;47.168;16.008;2023-02-26T05:59:49;1.10;99.90
53498;DHT22;39382;47.168;16.008;2023-02-26T06:02:15;1.10;99.90
53498;DHT22;39382;47.168;16.008;2023-02-26T06:04:40;1.40;99.90
53498;DHT22;39382;47.168;16.008;2023-02-26T06:07:06;1.80;99.90
53498;DHT22;39382;47.168;16.008;2023-02-26T06:09:32;1.10;99.90
53498;DHT22;39382;47.168;16.008;2023-02-26T06:11:57;1.60;99.90
53498;DHT22;39382;47.168;16.008;2023-02-26T06:14:23;1.40;99.90
53498;DHT22;39382;47.168;16.008;2023-02-26T06:16:48;1.30;99.90
53498;DHT22;39382;47.168;16.008;2023-02-26T06:19:14;1.30;99.90
53498;DHT22;39382;47.168;16.008;2023-02-26T06:21:40;1.20;99.90
53498;DHT22;39382;47.168;16.008;2023-02-26T06:24:06;1.60;99.90
53498;DHT22;39382;47.168;16.008;2023-02-26T06:26:31;1.90;99.90
53498;DHT22;39382;47.168;16.008;2023-02-26T06:28:57;1.80;99.90
53498;DHT22;39382;47.168;16.008;2023-02-26T06:31:23;1.70;99.90
53498;DHT22;39382;47.168;16.008;2023-02-26T06:33:49;1.50;99.90
53498;DHT22;39382;47.168;16.008;2023-02-26T06:36:14;1.50;99.90
53498;DHT22;39382;47.168;16.008;2023-02-26T06:38:40;1.40;99.90
53498;DHT22;39382;47.168;16.008;2023-02-26T06:41:06;1.50;99.90
53498;DHT22;39382;47.168;16.008;2023-02-26T06:43:33;1.50;99.90
53498;DHT22;39382;47.168;16.008;2023-02-26T06:45:59;1.70;99.90
53498;DHT22;39382;47.168;16.008;2023-02-26T06:48:25;1.50;99.90
53498;DHT22;39382;47.168;16.008;2023-02-26T06:50:51;1.60;99.90
53498;DHT22;39382;47.168;16.008;2023-02-26T06:53:17;1.90;99.90
53498;DHT22;39382;47.168;16.008;2023-02-26T06:55:48;1.70;99.90
53498;DHT22;39382;47.168;16.008;2023-02-26T06:58:15;1.90;99.90
53498;DHT22;39382;47.168;16.008;2023-02-26T07:00:40;1.90;99.90
53498;DHT22;39382;47.168;16.008;2023-02-26T07:03:12;1.90;99.90
53498;DHT22;39382;47.168;16.008;2023-02-26T07:05:38;2.00;99.90
53498;DHT22;39382;47.168;16.008;2023-02-26T07:08:04;1.90;99.50
53498;DHT22;39382;47.168;16.008;2023-02-26T07:10:32;2.00;99.60
53498;DHT22;39382;47.168;16.008;2023-02-26T07:12:58;2.10;99.40
53498;DHT22;39382;47.168;16.008;2023-02-26T07:15:23;2.00;99.60
53498;DHT22;39382;47.168;16.008;2023-02-26T07:17:49;2.20;99.90
53498;DHT22;39382;47.168;16.008;2023-02-26T07:20:15;2.20;99.90
53498;DHT22;39382;47.168;16.008;2023-02-26T07:22:42;2.20;99.80
53498;DHT22;39382;47.168;16.008;2023-02-26T07:25:08;2.30;99.90
53498;DHT22;39382;47.168;16.008;2023-02-26T07:27:34;2.30;99.30
53498;DHT22;39382;47.168;16.008;2023-02-26T07:30:00;2.30;98.50
53498;DHT22;39382;47.168;16.008;2023-02-26T07:32:26;2.40;98.10
53498;DHT22;39382;47.168;16.008;2023-02-26T07:34:52;2.50;98.00
53498;DHT22;39382;47.168;16.008;2023-02-26T07:37:18;2.60;98.20
53498;DHT22;39382;47.168;16.008;2023-02-26T07:39:44;2.60;96.40
53498;DHT22;39382;47.168;16.008;2023-02-26T07:42:10;2.70;95.60
53498;DHT22;39382;47.168;16.008;2023-02-26T07:44:35;2.70;96.20
53498;DHT22;39382;47.168;16.008;2023-02-26T07:47:01;2.80;95.70
53498;DHT22;39382;47.168;16.008;2023-02-26T07:49:27;3.00;95.20
53498;DHT22;39382;47.168;16.008;2023-02-26T07:51:52;2.90;94.10
53498;DHT22;39382;47.168;16.008;2023-02-26T07:54:18;2.90;93.20
53498;DHT22;39382;47.168;16.008;2023-02-26T07:56:44;3.10;94.70
53498;DHT22;39382;47.168;16.008;2023-02-26T07:59:10;3.10;94.30
53498;DHT22;39382;47.168;16.008;2023-02-26T08:01:36;3.20;94.10
53498;DHT22;39382;47.168;16.008;2023-02-26T08:04:02;3.20;94.80
53498;DHT22;39382;47.168;16.008;2023-02-26T08:06:28;3.20;94.40
53498;DHT22;39382;47.168;16.008;2023-02-26T08:08:54;3.30;93.90
53498;DHT22;39382;47.168;16.008;2023-02-26T08:11:20;3.40;95.50
53498;DHT22;39382;47.168;16.008;2023-02-26T08:13:45;3.40;93.80
53498;DHT22;39382;47.168;16.008;2023-02-26T08:16:11;3.60;94.40
53498;DHT22;39382;47.168;16.008;2023-02-26T08:18:36;3.50;91.60
53498;DHT22;39382;47.168;16.008;2023-02-26T08:21:02;3.50;92.50
53498;DHT22;39382;47.168;16.008;2023-02-26T08:23:28;3.60;93.30
53498;DHT22;39382;47.168;16.008;2023-02-26T08:26:01;3.60;92.40
53498;DHT22;39382;47.168;16.008;2023-02-26T08:28:27;3.50;90.90
53498;DHT22;39382;47.168;16.008;2023-02-26T08:30:53;3.50;90.70
53498;DHT22;39382;47.168;16.008;2023-02-26T08:33:18;3.60;90.40
53498;DHT22;39382;47.168;16.008;2023-02-26T08:35:44;3.70;90.70
53498;DHT22;39382;47.168;16.008;2023-02-26T08:38:10;3.70;91.20
53498;DHT22;39382;47.168;16.008;2023-02-26T08:40:35;3.50;90.30
53498;DHT22;39382;47.168;16.008;2023-02-26T08:43:01;3.50;90.80
53498;DHT22;39382;47.168;16.008;2023-02-26T08:45:28;3.50;91.40
53498;DHT22;39382;47.168;16.008;2023-02-26T08:47:54;3.60;91.00
53498;DHT22;39382;47.168;16.008;2023-02-26T08:50:21;3.50;91.60
53498;DHT22;39382;47.168;16.008;2023-02-26T08:52:46;3.60;91.10
53498;DHT22;39382;47.168;16.008;2023-02-26T08:55:12;3.60;91.40
53498;DHT22;39382;47.168;16.008;2023-02-26T08:57:38;3.70;92.40
53498;DHT22;39382;47.168;16.008;2023-02-26T09:00:04;3.50;90.70
53498;DHT22;39382;47.168;16.008;2023-02-26T09:02:35;3.40;90.60
53498;DHT22;39382;47.168;16.008;2023-02-26T09:05:01;3.30;91.00
53498;DHT22;39382;47.168;16.008;2023-02-26T09:07:27;3.20;91.20
53498;DHT22;39382;47.168;16.008;2023-02-26T09:09:52;3.10;90.40
53498;DHT22;39382;47.168;16.008;2023-02-26T09:12:18;3.10;91.90
53498;DHT22;39382;47.168;16.008;2023-02-26T09:14:44;3.20;90.80
53498;DHT22;39382;47.168;16.008;2023-02-26T09:17:09;3.30;91.50
53498;DHT22;39382;47.168;16.008;2023-02-26T09:19:35;3.30;91.80
53498;DHT22;39382;47.168;16.008;2023-02-26T09:22:00;3.50;93.00
53498;DHT22;39382;47.168;16.008;2023-02-26T09:24:26;3.60;92.90
53498;DHT22;39382;47.168;16.008;2023-02-26T09:26:52;3.70;92.50
53498;DHT22;39382;47.168;16.008;2023-02-26T09:29:17;3.60;91.90
53498;DHT22;39382;47.168;16.008;2023-02-26T09:31:43;3.60;91.50
53498;DHT22;39382;47.168;16.008;2023-02-26T09:34:09;3.40;91.70
53498;DHT22;39382;47.168;16.008;2023-02-26T09:36:34;3.50;92.20
53498;DHT22;39382;47.168;16.008;2023-02-26T09:39:02;3.60;91.60
53498;DHT22;39382;47.168;16.008;2023-02-26T09:41:31;3.80;92.10
53498;DHT22;39382;47.168;16.008;2023-02-26T09:50:02;4.00;91.10
53498;DHT22;39382;47.168;16.008;2023-02-26T09:52:29;3.90;90.90
53498;DHT22;39382;47.168;16.008;2023-02-26T09:55:00;3.90;91.80
53498;DHT22;39382;47.168;16.008;2023-02-26T09:57:35;3.90;91.40
53498;DHT22;39382;47.168;16.008;2023-02-26T10:00:22;4.00;92.10
53498;DHT22;39382;47.168;16.008;2023-02-26T10:08:16;4.10;91.80
53498;DHT22;39382;47.168;16.008;2023-02-26T10:10:57;4.20;90.90
53498;DHT22;39382;47.168;16.008;2023-02-26T10:13:36;4.00;91.50
53498;DHT22;39382;47.168;16.008;2023-02-26T10:16:14;3.90;90.60
53498;DHT22;39382;47.168;16.008;2023-02-26T10:22:03;4.10;91.70
53498;DHT22;39382;47.168;16.008;2023-02-26T10:24:46;4.10;91.50
53498;DHT22;39382;47.168;16.008;2023-02-26T10:27:21;4.30;91.40
53498;DHT22;39382;47.168;16.008;2023-02-26T10:32:18;4.10;89.30
53498;DHT22;39382;47.168;16.008;2023-02-26T10:42:51;4.20;90.70
53498;DHT22;39382;47.168;16.008;2023-02-26T10:45:29;4.20;90.60
53498;DHT22;39382;47.168;16.008;2023-02-26T10:50:47;4.50;90.50
53498;DHT22;39382;47.168;16.008;2023-02-26T10:53:14;4.70;90.90
53498;DHT22;39382;47.168;16.008;2023-02-26T10:55:55;4.80;89.90
53498;DHT22;39382;47.168;16.008;2023-02-26T10:58:24;4.70;89.70
53498;DHT22;39382;47.168;16.008;2023-02-26T11:00:53;4.50;88.80
53498;DHT22;39382;47.168;16.008;2023-02-26T11:03:30;4.40;89.20
53498;DHT22;39382;47.168;16.008;2023-02-26T11:05:57;4.50;89.50
53498;DHT22;39382;47.168;16.008;2023-02-26T11:08:31;4.50;88.40
53498;DHT22;39382;47.168;16.008;2023-02-26T11:10:59;4.40;88.00
53498;DHT22;39382;47.168;16.008;2023-02-26T11:13:28;4.40;87.50
53498;DHT22;39382;47.168;16.008;2023-02-26T11:15:57;4.40;85.60
53498;DHT22;39382;47.168;16.008;2023-02-26T11:18:31;4.30;87.50
53498;DHT22;39382;47.168;16.008;2023-02-26T11:21:00;4.10;82.20
53498;DHT22;39382;47.168;16.008;2023-02-26T11:23:29;4.10;82.80
53498;DHT22;39382;47.168;16.008;2023-02-26T11:26:06;4.00;84.80
53498;DHT22;39382;47.168;16.008;2023-02-26T11:28:45;4.00;84.20
53498;DHT22;39382;47.168;16.008;2023-02-26T11:31:14;3.80;83.50
53498;DHT22;39382;47.168;16.008;2023-02-26T11:33:51;3.70;82.70
53498;DHT22;39382;47.168;16.008;2023-02-26T11:36:22;3.60;83.80
53498;DHT22;39382;47.168;16.008;2023-02-26T11:39:17;3.60;84.60
53498;DHT22;39382;47.168;16.008;2023-02-26T11:41:44;3.60;82.80
53498;DHT22;39382;47.168;16.008;2023-02-26T11:44:14;3.80;82.40
53498;DHT22;39382;47.168;16.008;2023-02-26T11:46:51;3.90;83.60
53498;DHT22;39382;47.168;16.008;2023-02-26T11:49:19;4.10;86.20
53498;DHT22;39382;47.168;16.008;2023-02-26T11:51:47;4.20;85.10
53498;DHT22;39382;47.168;16.008;2023-02-26T11:54:27;4.10;83.80
53498;DHT22;39382;47.168;16.008;2023-02-26T11:57:46;4.10;82.10
53498;DHT22;39382;47.168;16.008;2023-02-26T11:59:51;4.10;82.20
53498;DHT22;39382;47.168;16.008;2023-02-26T12:02:20;4.00;82.30
53498;DHT22;39382;47.168;16.008;2023-02-26T12:04:53;3.90;81.60
53498;DHT22;39382;47.168;16.008;2023-02-26T12:07:20;4.10;81.70
53498;DHT22;39382;47.168;16.008;2023-02-26T12:09:46;4.00;79.40
53498;DHT22;39382;47.168;16.008;2023-02-26T12:15:02;4.20;81.80
53498;DHT22;39382;47.168;16.008;2023-02-26T12:20:23;4.20;78.80
53498;DHT22;39382;47.168;16.008;2023-02-26T12:45:10;4.20;75.60
53498;DHT22;39382;47.168;16.008;2023-02-26T12:50:57;4.30;75.00
53498;DHT22;39382;47.168;16.008;2023-02-26T13:05:29;4.10;75.40
53498;DHT22;39382;47.168;16.008;2023-02-26T13:11:15;3.80;75.30
53498;DHT22;39382;47.168;16.008;2023-02-26T13:21:50;4.00;79.30
53498;DHT22;39382;47.168;16.008;2023-02-26T13:24:33;4.10;77.80
53498;DHT22;39382;47.168;16.008;2023-02-26T13:27:02;4.20;77.80
53498;DHT22;39382;47.168;16.008;2023-02-26T13:29:36;4.30;78.50
53498;DHT22;39382;47.168;16.008;2023-02-26T13:32:09;4.20;75.80
53498;DHT22;39382;47.168;16.008;2023-02-26T13:34:47;4.20;75.50
53498;DHT22;39382;47.168;16.008;2023-02-26T13:37:38;3.90;74.30
53498;DHT22;39382;47.168;16.008;2023-02-26T13:43:41;4.10;77.10
53498;DHT22;39382;47.168;16.008;2023-02-26T13:49:37;4.00;75.50
53498;DHT22;39382;47.168;16.008;2023-02-26T13:52:25;4.00;76.30
53498;DHT22;39382;47.168;16.008;2023-02-26T13:54:51;3.80;76.50
53498;DHT22;39382;47.168;16.008;2023-02-26T13:57:56;3.80;77.70
53498;DHT22;39382;47.168;16.008;2023-02-26T14:13:23;3.50;81.50
53498;DHT22;39382;47.168;16.008;2023-02-26T14:16:09;3.40;82.20
53498;DHT22;39382;47.168;16.008;2023-02-26T14:24:04;3.20;84.60
53498;DHT22;39382;47.168;16.008;2023-02-26T14:26:33;3.30;86.00
53498;DHT22;39382;47.168;16.008;2023-02-26T14:29:20;3.30;85.50
53498;DHT22;39382;47.168;16.008;2023-02-26T14:34:27;3.20;86.50
53498;DHT22;39382;47.168;16.008;2023-02-26T14:36:58;3.10;86.80
53498;DHT22;39382;47.168;16.008;2023-02-26T14:39:52;3.10;87.50
53498;DHT22;39382;47.168;16.008;2023-02-26T14:42:33;3.10;88.30
53498;DHT22;39382;47.168;16.008;2023-02-26T14:47:43;2.90;88.70
53498;DHT22;39382;47.168;16.008;2023-02-26T14:50:18;2.70;88.10
53498;DHT22;39382;47.168;16.008;2023-02-26T15:01:06;2.50;89.20
53498;DHT22;39382;47.168;16.008;2023-02-26T15:12:14;2.50;90.00
53498;DHT22;39382;47.168;16.008;2023-02-26T15:15:13;2.50;90.40
53498;DHT22;39382;47.168;16.008;2023-02-26T15:23:51;2.40;90.20
53498;DHT22;39382;47.168;16.008;2023-02-26T15:26:48;2.40;90.70
53498;DHT22;39382;47.168;16.008;2023-02-26T15:29:16;2.40;91.20
53498;DHT22;39382;47.168;16.008;2023-02-26T15:31:45;2.30;91.60
53498;DHT22;39382;47.168;16.008;2023-02-26T15:34:14;2.30;91.70
53498;DHT22;39382;47.168;16.008;2023-02-26T15:36:45;2.20;90.90
53498;DHT22;39382;47.168;16.008;2023-02-26T15:39:14;2.20;90.60
53498;DHT22;39382;47.168;16.008;2023-02-26T15:41:43;2.20;90.30
53498;DHT22;39382;47.168;16.008;2023-02-26T15:44:15;2.20;90.20
53498;DHT22;39382;47.168;16.008;2023-02-26T15:46:44;2.30;90.30
53498;DHT22;39382;47.168;16.008;2023-02-26T15:51:42;2.20;90.10
53498;DHT22;39382;47.168;16.008;2023-02-26T15:54:17;2.20;90.20
53498;DHT22;39382;47.168;16.008;2023-02-26T15:56:44;2.20;90.40
53498;DHT22;39382;47.168;16.008;2023-02-26T15:59:12;2.20;90.20
53498;DHT22;39382;47.168;16.008;2023-02-26T16:01:41;2.30;90.30
53498;DHT22;39382;47.168;16.008;2023-02-26T16:04:13;2.20;90.30
53498;DHT22;39382;47.168;16.008;2023-02-26T16:06:58;2.10;90.20
53498;DHT22;39382;47.168;16.008;2023-02-26T16:09:26;2.20;90.30
53498;DHT22;39382;47.168;16.008;2023-02-26T16:11:56;2.20;90.10
53498;DHT22;39382;47.168;16.008;2023-02-26T16:14:35;2.10;90.00
53498;DHT22;39382;47.168;16.008;2023-02-26T16:17:04;2.10;90.10
53498;DHT22;39382;47.168;16.008;2023-02-26T16:19:43;2.10;90.00
53498;DHT22;39382;47.168;16.008;2023-02-26T16:24:58;2.00;90.50
53498;DHT22;39382;47.168;16.008;2023-02-26T16:27:26;2.00;90.60
53498;DHT22;39382;47.168;16.008;2023-02-26T16:29:55;2.10;90.80
53498;DHT22;39382;47.168;16.008;2023-02-26T16:32:23;2.00;91.30
53498;DHT22;39382;47.168;16.008;2023-02-26T16:34:52;2.00;91.80
53498;DHT22;39382;47.168;16.008;2023-02-26T16:40:21;1.90;92.70
53498;DHT22;39382;47.168;16.008;2023-02-26T16:47:59;1.60;93.90
53498;DHT22;39382;47.168;16.008;2023-02-26T16:50:27;1.60;94.10
53498;DHT22;39382;47.168;16.008;2023-02-26T16:55:28;1.60;94.30
53498;DHT22;39382;47.168;16.008;2023-02-26T16:57:54;1.60;94.40
53498;DHT22;39382;47.168;16.008;2023-02-26T17:00:24;1.70;94.70
53498;DHT22;39382;47.168;16.008;2023-02-26T17:03:11;1.70;94.40
53498;DHT22;39382;47.168;16.008;2023-02-26T17:06:02;1.70;94.30
53498;DHT22;39382;47.168;16.008;2023-02-26T17:08:45;1.70;93.80
53498;DHT22;39382;47.168;16.008;2023-02-26T17:13:56;1.60;93.90
53498;DHT22;39382;47.168;16.008;2023-02-26T17:16:27;1.60;93.90
53498;DHT22;39382;47.168;16.008;2023-02-26T17:18:53;1.60;94.10
53498;DHT22;39382;47.168;16.008;2023-02-26T17:21:18;1.60;93.60
53498;DHT22;39382;47.168;16.008;2023-02-26T17:23:45;1.60;93.60
53498;DHT22;39382;47.168;16.008;2023-02-26T17:26:12;1.70;93.50
53498;DHT22;39382;47.168;16.008;2023-02-26T17:28:40;1.60;93.10
53498;DHT22;39382;47.168;16.008;2023-02-26T17:31:07;1.70;93.20
53498;DHT22;39382;47.168;16.008;2023-02-26T17:33:33;1.70;93.00
53498;DHT22;39382;47.168;16.008;2023-02-26T17:36:01;1.70;93.00
53498;DHT22;39382;47.168;16.008;2023-02-26T17:38:27;1.70;93.30
53498;DHT22;39382;47.168;16.008;2023-02-26T17:40:53;1.60;92.90
53498;DHT22;39382;47.168;16.008;2023-02-26T17:43:21;2.00;93.30
53498;DHT22;39382;47.168;16.008;2023-02-26T17:45:47;1.80;93.30
53498;DHT22;39382;47.168;16.008;2023-02-26T17:48:13;1.80;93.30
53498;DHT22;39382;47.168;16.008;2023-02-26T17:51:06;1.60;92.60
53498;DHT22;39382;47.168;16.008;2023-02-26T17:53:33;1.70;92.60
53498;DHT22;39382;47.168;16.008;2023-02-26T17:56:20;1.70;92.30
53498;DHT22;39382;47.168;16.008;2023-02-26T17:58:48;1.70;92.40
53498;DHT22;39382;47.168;16.008;2023-02-26T18:01:14;1.70;92.20
53498;DHT22;39382;47.168;16.008;2023-02-26T18:03:40;1.70;91.60
53498;DHT22;39382;47.168;16.008;2023-02-26T18:06:09;1.60;91.20
53498;DHT22;39382;47.168;16.008;2023-02-26T18:08:36;1.60;91.30
53498;DHT22;39382;47.168;16.008;2023-02-26T18:11:02;1.60;91.50
53498;DHT22;39382;47.168;16.008;2023-02-26T18:13:29;1.50;91.40
53498;DHT22;39382;47.168;16.008;2023-02-26T18:15:55;1.60;91.60
53498;DHT22;39382;47.168;16.008;2023-02-26T18:18:23;1.50;91.30
53498;DHT22;39382;47.168;16.008;2023-02-26T18:20:50;1.50;91.20
53498;DHT22;39382;47.168;16.008;2023-02-26T18:23:16;1.50;91.40
53498;DHT22;39382;47.168;16.008;2023-02-26T18:25:46;1.50;91.30
53498;DHT22;39382;47.168;16.008;2023-02-26T18:28:16;1.50;91.50
53498;DHT22;39382;47.168;16.008;2023-02-26T18:30:42;1.50;91.50
53498;DHT22;39382;47.168;16.008;2023-02-26T18:33:12;1.50;91.40
53498;DHT22;39382;47.168;16.008;2023-02-26T18:35:41;1.50;91.20
53498;DHT22;39382;47.168;16.008;2023-02-26T18:38:15;1.50;91.30
53498;DHT22;39382;47.168;16.008;2023-02-26T18:40:41;1.50;91.00
53498;DHT22;39382;47.168;16.008;2023-02-26T18:43:07;1.50;91.00
53498;DHT22;39382;47.168;16.008;2023-02-26T18:45:35;1.50;91.30
53498;DHT22;39382;47.168;16.008;2023-02-26T18:48:00;1.50;91.20
53498;DHT22;39382;47.168;16.008;2023-02-26T18:50:26;1.40;91.00
53498;DHT22;39382;47.168;16.008;2023-02-26T18:52:52;1.50;91.10
53498;DHT22;39382;47.168;16.008;2023-02-26T18:55:18;1.50;90.90
53498;DHT22;39382;47.168;16.008;2023-02-26T18:57:43;1.40;90.70
53498;DHT22;39382;47.168;16.008;2023-02-26T19:00:11;1.40;91.10
53498;DHT22;39382;47.168;16.008;2023-02-26T19:02:41;1.50;91.40
53498;DHT22;39382;47.168;16.008;2023-02-26T19:05:09;1.40;91.50
53498;DHT22;39382;47.168;16.008;2023-02-26T19:07:35;1.40;91.60
53498;DHT22;39382;47.168;16.008;2023-02-26T19:10:02;1.40;91.50
53498;DHT22;39382;47.168;16.008;2023-02-26T19:12:28;1.50;91.50
53498;DHT22;39382;47.168;16.008;2023-02-26T19:14:53;1.40;91.60
53498;DHT22;39382;47.168;16.008;2023-02-26T19:17:20;1.40;91.70